Time;durP1;ratioP1;P1;durP2;ratioP2;P2;SDS_P1;SDS_P2;PMS_P1;PMS_P2;Temp;Humidity;BMP_temperature;BMP_pressure;BME280_temperature;BME280_humidity;BME280_pressure;Samples;Min_cycle;Max_cycle;Signal;HPM_P1;HPM_P2
2023/09/18 00:02:20;;;;;;;106.43;101.60;;;;;;;24.68;51.95;100465.97;5006052;28;20046;-74
2023/09/18 00:04:46;;;;;;;106.22;101.35;;;;;;;24.67;52.02;100467.09;5007631;28;20042;-74
2023/09/18 00:07:11;;;;;;;108.07;103.07;;;;;;;24.66;51.75;100471.03;5006691;28;20038;-73
2023/09/18 00:09:37;;;;;;;106.18;101.32;;;;;;;24.66;51.73;100462.75;5003424;28;20038;-72
2023/09/18 00:12:02;;;;;;;107.68;102.57;;;;;;;24.65;51.95;100450.09;5009397;28;20398;-71
2023/09/18 00:14:28;;;;;;;105.95;101.00;;;;;;;24.63;52.08;100453.19;5007162;28;20498;-72
2023/09/18 00:16:53;;;;;;;110.93;105.93;;;;;;;24.63;51.72;100452.41;5007521;28;20129;-71
2023/09/18 00:19:19;;;;;;;107.00;102.10;;;;;;;24.63;51.86;100441.34;5011409;28;20033;-73
2023/09/18 00:21:44;;;;;;;105.72;100.85;;;;;;;24.61;52.13;100425.91;5006073;28;20062;-73
2023/09/18 00:24:11;;;;;;;106.55;101.68;;;;;;;24.60;52.16;100421.56;5011526;28;20482;-74
2023/09/18 00:26:37;;;;;;;108.93;103.93;;;;;;;24.60;52.11;100406.94;5013265;28;20049;-74
2023/09/18 00:29:02;;;;;;;105.35;100.55;;;;;;;24.59;52.27;100403.38;5006621;28;20037;-75
2023/09/18 00:31:27;;;;;;;104.90;100.15;;;;;;;24.59;52.01;100391.50;5013034;28;20116;-74
2023/09/18 00:33:53;;;;;;;104.00;99.20;;;;;;;24.58;51.84;100393.47;5018522;28;20048;-74
2023/09/18 00:36:18;;;;;;;107.53;102.63;;;;;;;24.58;51.93;100384.41;5007193;28;20108;-76
2023/09/18 00:38:44;;;;;;;106.05;101.32;;;;;;;24.58;52.05;100381.63;5013387;28;20037;-71
2023/09/18 00:41:09;;;;;;;105.65;100.72;;;;;;;24.57;51.80;100389.13;5014952;28;20429;-74
2023/09/18 00:43:34;;;;;;;108.25;103.03;;;;;;;24.57;52.03;100382.78;5008840;28;20022;-78
2023/09/18 00:46:00;;;;;;;104.70;100.00;;;;;;;24.56;52.00;100379.22;4997493;28;20429;-78
2023/09/18 00:48:27;;;;;;;104.60;99.80;;;;;;;24.57;52.06;100377.28;5013381;28;20113;-73
2023/09/18 00:50:53;;;;;;;105.60;100.85;;;;;;;24.56;51.71;100364.59;5018450;28;20093;-75
2023/09/18 00:53:21;;;;;;;107.13;102.28;;;;;;;24.55;51.85;100363.81;5007723;28;21010;-72
2023/09/18 00:55:47;;;;;;;108.05;103.05;;;;;;;24.55;51.56;100357.47;5007969;28;20026;-72
2023/09/18 00:58:13;;;;;;;107.10;102.20;;;;;;;24.54;51.94;100364.94;5007998;28;20034;-72
2023/09/18 01:00:40;;;;;;;106.40;101.60;;;;;;;24.53;51.55;100354.25;5011430;28;20038;-76
2023/09/18 01:03:06;;;;;;;108.55;103.60;;;;;;;24.54;51.95;100347.56;5015159;28;20096;-72
2023/09/18 01:05:33;;;;;;;108.15;103.20;;;;;;;24.54;51.96;100347.56;5013264;28;20030;-73
2023/09/18 01:07:58;;;;;;;106.10;101.28;;;;;;;24.52;51.85;100342.41;5003034;28;20049;-71
2023/09/18 01:10:30;;;;;;;104.32;99.50;;;;;;;24.52;52.03;100336.88;5008601;28;20037;-72
2023/09/18 01:13:13;;;;;;;109.72;104.43;;;;;;;24.51;51.79;100340.78;5010382;28;20394;-72
2023/09/18 01:15:48;;;;;;;104.07;99.32;;;;;;;24.50;52.06;100333.66;5019282;28;20185;-71
2023/09/18 01:18:13;;;;;;;107.57;102.60;;;;;;;24.49;51.69;100340.31;5009731;28;20434;-73
2023/09/18 01:20:39;;;;;;;105.68;100.93;;;;;;;24.48;51.88;100326.88;5007225;28;20489;-74
2023/09/18 01:23:04;;;;;;;108.10;102.72;;;;;;;24.47;52.03;100320.56;5006815;28;20482;-74
2023/09/18 01:25:33;;;;;;;107.57;102.68;;;;;;;24.46;51.84;100324.44;5004961;28;20080;-72
2023/09/18 01:27:58;;;;;;;;;;;;;;;24.40;52.15;100321.09;5004957;28;20410;-73
2023/09/18 01:30:24;;;;;;;101.10;96.47;;;;;;;24.42;51.70;100323.53;5014219;28;19934;-72
2023/09/18 01:32:51;;;;;;;102.28;97.68;;;;;;;24.40;52.01;100321.09;5007119;28;20531;-72
2023/09/18 01:35:17;;;;;;;103.25;98.45;;;;;;;24.40;51.89;100314.78;5010563;28;20117;-73
2023/09/18 01:37:44;;;;;;;104.63;99.63;;;;;;;24.40;51.80;100328.59;5003756;28;20026;-76
2023/09/18 01:40:11;;;;;;;104.07;99.20;;;;;;;24.39;51.91;100329.72;5005678;28;20045;-74
2023/09/18 01:42:36;;;;;;;103.43;98.63;;;;;;;24.39;51.91;100330.53;5015142;28;20121;-74
2023/09/18 01:45:02;;;;;;;105.20;100.45;;;;;;;24.38;51.96;100328.91;5015888;28;20120;-74
2023/09/18 01:47:28;;;;;;;105.05;100.07;;;;;;;24.37;51.81;100338.38;5011888;28;20053;-75
2023/09/18 01:49:53;;;;;;;106.18;101.28;;;;;;;24.37;51.84;100340.31;5011836;28;20044;-78
2023/09/18 01:52:19;;;;;;;106.53;101.63;;;;;;;24.37;52.05;100343.09;5006390;28;20040;-72
2023/09/18 01:54:45;;;;;;;104.18;99.50;;;;;;;24.37;51.89;100340.31;5005731;28;20034;-75
2023/09/18 01:57:12;;;;;;;105.45;100.65;;;;;;;24.37;51.88;100343.09;5004345;28;20041;-77
2023/09/18 01:59:37;;;;;;;105.38;100.35;;;;;;;24.36;51.89;100349.75;5006576;28;20037;-73
2023/09/18 02:02:06;;;;;;;102.82;98.07;;;;;;;24.36;51.65;100335.94;5012184;28;20480;-74
2023/09/18 02:04:32;;;;;;;103.00;98.30;;;;;;;24.35;51.82;100332.38;5009035;28;20041;-73
2023/09/18 02:06:58;;;;;;;99.38;94.70;;;;;;;24.34;51.83;100336.31;5007042;28;20056;-74
2023/09/18 02:09:23;;;;;;;106.32;101.43;;;;;;;24.34;52.00;100322.50;5017665;28;20029;-72
2023/09/18 02:11:48;;;;;;;101.82;96.90;;;;;;;24.33;51.77;100326.38;5007355;28;20508;-75
2023/09/18 02:14:14;;;;;;;106.75;101.65;;;;;;;24.34;51.47;100344.56;5003275;28;20030;-74
2023/09/18 02:16:42;;;;;;;109.80;104.90;;;;;;;24.34;51.69;100333.53;5008092;28;20042;-72
2023/09/18 02:19:08;;;;;;;106.57;101.47;;;;;;;24.35;51.88;100320.53;4986921;28;20467;-73
2023/09/18 02:21:34;;;;;;;105.28;100.47;;;;;;;24.34;51.48;100313.38;5012240;28;20466;-73
2023/09/18 02:23:59;;;;;;;106.55;101.45;;;;;;;24.33;51.72;100307.06;5010202;28;20045;-77
2023/09/18 02:26:25;;;;;;;102.95;97.95;;;;;;;24.33;51.76;100301.56;4999206;28;20050;-72
2023/09/18 02:28:54;;;;;;;104.80;99.93;;;;;;;24.32;51.79;100296.41;5004904;28;20078;-72
2023/09/18 02:31:20;;;;;;;102.63;97.82;;;;;;;24.31;51.80;100303.84;5010866;28;20038;-74
2023/09/18 02:33:46;;;;;;;102.97;98.35;;;;;;;24.30;51.71;100296.72;5003267;28;20386;-71
2023/09/18 02:36:12;;;;;;;104.18;99.43;;;;;;;24.31;51.58;100286.47;4991480;28;20038;-74
2023/09/18 02:38:38;;;;;;;101.78;97.07;;;;;;;24.29;51.79;100272.22;5005003;28;20121;-74
2023/09/18 02:41:03;;;;;;;104.25;99.50;;;;;;;24.29;51.72;100263.94;5007869;28;20029;-72
2023/09/18 02:43:29;;;;;;;101.95;97.30;;;;;;;24.28;51.83;100254.06;5008345;28;20038;-74
2023/09/18 02:45:54;;;;;;;99.18;94.68;;;;;;;24.28;51.56;100260.38;5006592;28;20123;-73
2023/09/18 02:48:20;;;;;;;100.78;96.03;;;;;;;24.28;51.92;100259.59;5009353;28;20033;-73
2023/09/18 02:50:45;;;;;;;103.97;99.25;;;;;;;24.27;51.94;100260.75;5010564;28;20046;-75
2023/09/18 02:53:21;;;;;;;103.78;99.10;;;;;;;24.26;51.85;100234.28;5009450;28;20125;-72
2023/09/18 02:55:54;;;;;;;103.85;99.15;;;;;;;24.26;52.02;100223.25;5020481;28;20062;-73
2023/09/18 02:58:20;;;;;;;101.30;96.43;;;;;;;24.25;51.84;100213.38;5016023;28;20144;-75
2023/09/18 03:00:48;;;;;;;99.57;94.68;;;;;;;24.24;52.07;100218.09;5009950;28;20113;-72
2023/09/18 03:03:14;;;;;;;100.80;96.10;;;;;;;24.25;51.96;100218.88;5013035;28;20473;-81
2023/09/18 03:05:41;;;;;;;98.80;94.30;;;;;;;24.23;51.51;100223.94;5014054;28;20096;-73
2023/09/18 03:08:08;;;;;;;101.38;96.85;;;;;;;24.22;51.89;100236.13;5012940;28;20029;-71
2023/09/18 03:10:40;;;;;;;100.30;95.70;;;;;;;24.21;51.68;100234.53;5019491;28;20367;-73
2023/09/18 03:13:07;;;;;;;99.95;95.45;;;;;;;24.22;51.57;100227.84;5018460;28;20052;-73
2023/09/18 03:15:32;;;;;;;103.35;98.55;;;;;;;24.21;51.58;100217.97;5007949;28;20033;-73
2023/09/18 03:17:59;;;;;;;104.78;100.07;;;;;;;24.21;51.72;100218.75;5013758;28;20052;-75
2023/09/18 03:20:26;;;;;;;105.50;100.07;;;;;;;24.20;51.99;100219.94;5011202;28;20113;-73
2023/09/18 03:22:53;;;;;;;101.78;97.18;;;;;;;24.19;51.65;100221.88;5016580;28;20065;-73
2023/09/18 03:25:18;;;;;;;106.20;100.63;;;;;;;24.21;51.73;100212.44;5020058;28;20109;-73
2023/09/18 03:27:44;;;;;;;103.30;98.50;;;;;;;24.19;51.65;100207.25;5007650;28;20128;-73
2023/09/18 03:30:12;;;;;;;101.65;96.85;;;;;;;24.19;51.47;100202.56;5009373;28;20030;-72
2023/09/18 03:32:38;;;;;;;100.43;95.53;;;;;;;24.18;51.72;100206.47;5013213;28;20037;-72
2023/09/18 03:35:04;;;;;;;99.85;95.35;;;;;;;24.18;51.75;100198.19;5009095;28;20046;-72
2023/09/18 03:37:29;;;;;;;105.07;99.95;;;;;;;24.17;51.81;100202.09;5015071;28;20071;-73
2023/09/18 03:39:54;;;;;;;105.88;100.88;;;;;;;24.17;52.09;100207.63;5017731;28;20042;-71
2023/09/18 03:42:20;;;;;;;99.97;95.32;;;;;;;24.16;51.50;100217.03;5012077;28;20103;-73
2023/09/18 03:44:46;;;;;;;102.82;98.22;;;;;;;24.17;52.04;100231.66;5010691;28;20451;-73
2023/09/18 03:47:11;;;;;;;106.40;101.60;;;;;;;24.15;51.89;100233.97;5020355;28;20116;-71
2023/09/18 03:49:36;;;;;;;100.97;96.32;;;;;;;24.13;51.72;100231.53;5004169;28;20037;-73
2023/09/18 03:52:02;;;;;;;103.97;98.53;;;;;;;24.13;51.91;100225.22;5013540;28;20053;-72
2023/09/18 03:54:27;;;;;;;107.80;102.97;;;;;;;24.13;52.11;100211.44;5010422;28;20092;-72
2023/09/18 03:56:53;;;;;;;101.18;96.25;;;;;;;24.11;52.00;100219.25;5004097;28;20042;-75
2023/09/18 03:59:18;;;;;;;99.90;95.35;;;;;;;24.11;52.10;100222.00;5012829;28;20037;-78
2023/09/18 04:01:45;;;;;;;98.95;94.35;;;;;;;24.10;51.88;100221.19;5013886;28;20046;-72
2023/09/18 04:04:10;;;;;;;97.40;92.88;;;;;;;24.10;51.84;100214.88;5016333;28;20064;-74
2023/09/18 04:06:46;;;;;;;100.93;96.43;;;;;;;24.09;51.74;100211.31;5014735;28;20029;-74
2023/09/18 04:09:11;;;;;;;101.45;96.85;;;;;;;24.10;51.92;100204.66;5011067;28;20112;-72
2023/09/18 04:11:37;;;;;;;104.93;99.95;;;;;;;24.09;52.10;100208.56;5011534;28;20168;-73
2023/09/18 04:14:03;;;;;;;103.40;98.80;;;;;;;24.08;51.74;100220.75;5005288;28;20053;-73
2023/09/18 04:16:30;;;;;;;103.35;98.45;;;;;;;24.08;51.95;100217.19;5022069;28;20061;-75
2023/09/18 04:18:56;;;;;;;102.00;97.40;;;;;;;24.09;51.85;100208.56;5016201;28;20061;-77
2023/09/18 04:21:22;;;;;;;98.85;94.25;;;;;;;24.08;51.64;100203.38;5009257;28;20466;-75
2023/09/18 04:23:47;;;;;;;102.40;97.75;;;;;;;24.07;51.83;100199.81;5013076;28;20050;-73
2023/09/18 04:26:15;;;;;;;100.72;96.22;;;;;;;24.07;51.70;100215.59;5011074;28;20184;-71
2023/09/18 04:28:41;;;;;;;103.70;98.85;;;;;;;24.05;51.72;100202.13;5013341;28;20037;-72
2023/09/18 04:31:07;;;;;;;100.07;95.25;;;;;;;24.05;51.87;100199.38;5018544;28;20030;-78
2023/09/18 04:33:33;;;;;;;101.68;96.95;;;;;;;24.05;51.69;100193.06;5010628;28;20040;-74
2023/09/18 04:35:58;;;;;;;99.75;95.07;;;;;;;24.04;51.94;100183.97;5013408;28;20038;-71
2023/09/18 04:38:23;;;;;;;99.50;95.03;;;;;;;24.05;52.15;100174.53;5007855;28;20022;-74
2023/09/18 04:40:49;;;;;;;101.72;97.13;;;;;;;24.03;52.10;100163.03;5012512;28;20030;-72
2023/09/18 04:43:14;;;;;;;103.25;98.55;;;;;;;24.03;51.71;100165.78;5006384;28;20092;-72
2023/09/18 04:45:40;;;;;;;102.72;98.07;;;;;;;24.03;51.65;100160.28;5014514;28;20038;-73
2023/09/18 04:48:05;;;;;;;102.35;97.68;;;;;;;24.03;52.02;100154.75;5017432;28;20041;-75
2023/09/18 04:50:33;;;;;;;100.47;95.85;;;;;;;24.03;51.97;100134.66;5007455;28;20034;-77
2023/09/18 04:52:59;;;;;;;103.63;99.00;;;;;;;24.02;52.09;100144.09;5016238;28;20356;-73
2023/09/18 04:55:24;;;;;;;100.07;95.47;;;;;;;24.02;51.88;100144.88;5007484;28;20143;-76
2023/09/18 04:57:50;;;;;;;97.40;93.00;;;;;;;24.01;51.86;100142.47;5018522;28;20176;-72
2023/09/18 05:00:16;;;;;;;99.50;95.07;;;;;;;24.01;51.61;100145.22;5015407;28;20043;-74
2023/09/18 05:02:42;;;;;;;102.55;97.95;;;;;;;24.01;52.11;100134.19;5001392;28;20479;-74
2023/09/18 05:05:11;;;;;;;99.57;95.13;;;;;;;24.01;51.71;100139.72;5008945;28;20430;-73
2023/09/18 05:07:36;;;;;;;103.97;99.28;;;;;;;24.00;52.00;100130.63;5007073;28;20112;-73
2023/09/18 05:10:04;;;;;;;100.40;95.60;;;;;;;23.99;52.01;100137.31;5009438;28;20073;-72
2023/09/18 05:12:29;;;;;;;101.33;96.70;;;;;;;23.98;51.60;100133.72;5013080;28;20025;-74
2023/09/18 05:14:56;;;;;;;104.28;99.50;;;;;;;23.98;51.76;100138.44;5007663;28;20112;-72
2023/09/18 05:17:43;;;;;;;101.38;96.93;;;;;;;23.97;51.79;100153.41;5005654;28;20041;-72
2023/09/18 05:20:12;;;;;;;98.85;94.25;;;;;;;23.98;51.68;100146.72;5014573;28;20120;-73
2023/09/18 05:22:37;;;;;;;104.43;99.40;;;;;;;23.97;51.64;100156.97;5012007;28;20157;-71
2023/09/18 05:25:04;;;;;;;100.63;95.95;;;;;;;23.97;51.98;100159.72;5010542;28;20124;-72
2023/09/18 05:27:29;;;;;;;101.57;96.90;;;;;;;23.97;51.91;100150.66;5010047;28;20050;-74
2023/09/18 05:29:55;;;;;;;103.90;99.30;;;;;;;23.95;51.78;100139.94;5008800;28;20052;-71
2023/09/18 05:32:20;;;;;;;104.60;99.70;;;;;;;23.96;51.64;100135.22;5007094;28;20544;-73
2023/09/18 05:34:46;;;;;;;99.75;95.20;;;;;;;23.95;51.62;100131.69;5008308;28;20026;-73
2023/09/18 05:37:11;;;;;;;101.43;96.90;;;;;;;23.96;51.61;100138.81;5009638;28;20037;-73
2023/09/18 05:39:36;;;;;;;102.20;97.47;;;;;;;23.95;51.68;100145.47;5009677;28;20088;-73
2023/09/18 05:42:02;;;;;;;99.43;94.93;;;;;;;23.95;51.56;100148.22;5008926;28;20252;-75
2023/09/18 05:44:27;;;;;;;97.97;93.47;;;;;;;23.94;52.13;100145.84;5008991;28;20047;-76
2023/09/18 05:46:53;;;;;;;100.38;95.82;;;;;;;23.94;51.59;100151.34;5012918;28;20042;-72
2023/09/18 05:49:18;;;;;;;101.70;97.15;;;;;;;23.93;52.03;100163.50;5008594;28;20108;-75
2023/09/18 05:51:43;;;;;;;99.78;95.22;;;;;;;23.93;51.60;100167.06;5013140;28;20398;-72
2023/09/18 05:54:09;;;;;;;101.22;96.60;;;;;;;23.93;51.89;100164.31;5010902;28;20069;-73
2023/09/18 05:56:34;;;;;;;97.80;93.40;;;;;;;23.93;51.65;100180.06;5004143;28;20177;-71
2023/09/18 05:59:00;;;;;;;95.85;91.45;;;;;;;23.92;51.84;100192.25;5008275;28;20038;-72
2023/09/18 06:01:25;;;;;;;98.28;93.88;;;;;;;23.91;51.90;100183.19;5007187;28;20065;-73
2023/09/18 06:03:51;;;;;;;100.50;95.70;;;;;;;23.92;51.95;100192.25;5011645;28;20030;-71
2023/09/18 06:06:16;;;;;;;101.50;96.80;;;;;;;23.91;51.60;100177.69;5017325;28;20030;-73
2023/09/18 06:08:42;;;;;;;102.13;97.20;;;;;;;23.90;52.06;100175.25;5005305;28;20033;-73
2023/09/18 06:11:07;;;;;;;96.75;91.97;;;;;;;23.91;51.60;100185.13;5015621;28;20471;-71
2023/09/18 06:13:34;;;;;;;96.80;92.30;;;;;;;23.91;52.20;100180.44;5003242;28;20068;-77
2023/09/18 06:16:05;;;;;;;93.22;88.95;;;;;;;23.91;51.61;100174.09;5007292;28;20048;-72
2023/09/18 06:18:30;;;;;;;92.97;88.75;;;;;;;23.90;51.79;100194.56;5016684;28;20049;-73
2023/09/18 06:20:56;;;;;;;95.57;91.15;;;;;;;23.90;52.09;100197.31;5010113;28;20049;-71
2023/09/18 06:23:21;;;;;;;94.55;90.35;;;;;;;23.90;52.13;100189.03;5009204;28;20061;-72
2023/09/18 06:25:47;;;;;;;94.63;90.22;;;;;;;23.89;51.59;100199.28;5008212;28;20041;-71
2023/09/18 06:28:12;;;;;;;93.65;89.45;;;;;;;23.90;51.96;100209.16;5009942;28;20073;-73
2023/09/18 06:30:38;;;;;;;94.53;90.22;;;;;;;23.90;52.23;100203.63;5012864;28;20033;-70
2023/09/18 06:33:03;;;;;;;94.03;89.72;;;;;;;23.90;51.98;100202.84;5010552;28;20034;-72
2023/09/18 06:35:29;;;;;;;94.25;89.97;;;;;;;23.89;51.71;100202.03;5009556;28;20489;-74
2023/09/18 06:37:58;;;;;;;94.80;90.53;;;;;;;23.89;52.26;100201.22;5007176;28;20065;-73
2023/09/18 06:40:23;;;;;;;;;;;;;;;23.84;51.77;100207.78;5010657;28;20042;-71
2023/09/18 06:42:49;;;;;;;93.10;88.88;;;;;;;23.86;52.20;100205.47;5008922;28;19921;-71
2023/09/18 06:45:15;;;;;;;89.15;85.05;;;;;;;23.85;52.10;100214.09;5011861;28;20076;-74
2023/09/18 06:47:40;;;;;;;93.18;88.97;;;;;;;23.85;51.77;100206.63;5012775;28;20513;-73
2023/09/18 06:50:06;;;;;;;95.72;91.53;;;;;;;23.86;51.81;100215.69;5010544;28;20132;-71
2023/09/18 06:52:32;;;;;;;94.60;90.10;;;;;;;23.86;51.65;100221.22;5006189;28;20040;-72
2023/09/18 06:55:00;;;;;;;94.05;89.78;;;;;;;23.86;52.01;100233.03;4998610;28;20034;-72
2023/09/18 06:57:25;;;;;;;94.93;90.60;;;;;;;23.86;51.76;100235.00;4989359;28;20034;-73
2023/09/18 06:59:51;;;;;;;97.28;92.72;;;;;;;23.86;52.07;100226.72;4999366;28;20034;-72
2023/09/18 07:02:16;;;;;;;97.25;92.88;;;;;;;23.86;51.92;100237.75;5002883;28;20121;-73
2023/09/18 07:04:45;;;;;;;98.70;94.25;;;;;;;23.86;51.86;100232.25;5011955;28;20041;-73
2023/09/18 07:07:14;;;;;;;94.97;90.57;;;;;;;23.86;51.87;100232.25;5002641;28;20383;-72
2023/09/18 07:09:41;;;;;;;99.93;95.38;;;;;;;23.86;51.87;100227.53;5016330;28;20401;-71
2023/09/18 07:12:10;;;;;;;93.43;89.30;;;;;;;23.85;52.13;100228.69;4998540;28;20478;-72
2023/09/18 07:14:37;;;;;;;98.00;93.65;;;;;;;23.85;52.18;100223.16;4997625;28;20467;-74
2023/09/18 07:17:03;;;;;;;98.07;93.15;;;;;;;23.86;51.84;100210.19;4996537;28;20034;-72
2023/09/18 07:19:29;;;;;;;93.13;89.03;;;;;;;23.85;52.07;100228.69;4997249;28;20045;-72
2023/09/18 07:21:54;;;;;;;98.15;93.65;;;;;;;23.85;52.01;100217.66;4994289;28;20046;-72
2023/09/18 07:24:20;;;;;;;97.80;93.20;;;;;;;23.86;51.93;100224.75;5001659;28;20042;-71
2023/09/18 07:26:47;;;;;;;96.15;91.85;;;;;;;23.87;52.12;100240.19;5003323;28;20046;-73
2023/09/18 07:29:14;;;;;;;97.03;92.63;;;;;;;23.86;52.11;100233.03;5002091;28;20034;-74
2023/09/18 07:31:41;;;;;;;95.93;91.60;;;;;;;23.87;51.89;100237.44;5001673;28;20036;-74
2023/09/18 07:34:06;;;;;;;95.15;90.90;;;;;;;23.86;52.12;100227.53;5002932;28;20664;-72
2023/09/18 07:36:32;;;;;;;95.32;90.78;;;;;;;23.86;51.80;100238.56;5001447;28;20851;-72
2023/09/18 07:38:57;;;;;;;97.22;92.95;;;;;;;23.87;52.08;100247.66;5027000;28;20037;-72
2023/09/18 07:41:23;;;;;;;93.65;89.55;;;;;;;23.87;51.98;100239.38;5011134;28;20481;-72
2023/09/18 07:43:48;;;;;;;96.85;92.50;;;;;;;23.87;51.89;100244.91;5024909;28;20034;-71
2023/09/18 07:46:14;;;;;;;98.22;93.93;;;;;;;23.88;52.07;100238.22;5005451;28;20096;-74
2023/09/18 07:48:39;;;;;;;96.72;92.43;;;;;;;23.88;51.70;100232.72;5007753;28;20445;-75
2023/09/18 07:51:05;;;;;;;97.68;93.28;;;;;;;23.87;51.95;100242.94;5019425;28;20033;-72
2023/09/18 07:53:32;;;;;;;94.38;90.18;;;;;;;23.87;52.00;100256.72;5010466;28;20129;-71
2023/09/18 07:55:58;;;;;;;94.13;89.95;;;;;;;23.88;52.14;100257.53;5007827;28;20517;-71
2023/09/18 07:58:27;;;;;;;92.32;88.13;;;;;;;23.87;51.88;100264.22;5005305;28;20510;-71
2023/09/18 08:00:57;;;;;;;96.43;92.10;;;;;;;23.87;51.76;100273.28;5007202;28;20120;-74
2023/09/18 08:03:22;;;;;;;93.90;89.80;;;;;;;23.88;52.08;100268.56;5005953;28;20041;-72
2023/09/18 08:05:52;;;;;;;96.55;92.15;;;;;;;23.90;51.98;100263.50;5004610;28;20045;-70
2023/09/18 08:08:17;;;;;;;95.43;91.25;;;;;;;23.88;52.27;100261.09;4994322;28;20030;-73
2023/09/18 08:10:43;;;;;;;95.40;90.88;;;;;;;23.90;51.73;100269.03;5016227;28;20056;-77
2023/09/18 08:13:09;;;;;;;93.57;89.47;;;;;;;23.89;52.03;100259.13;5002020;28;20100;-75
2023/09/18 08:15:34;;;;;;;97.78;93.18;;;;;;;23.89;51.88;100264.66;5004953;28;20042;-73
2023/09/18 08:17:59;;;;;;;93.80;89.60;;;;;;;23.90;51.77;100260.75;5017551;28;20037;-73
2023/09/18 08:20:26;;;;;;;96.85;92.45;;;;;;;23.89;52.22;100264.66;5031287;28;20245;-71
2023/09/18 08:22:51;;;;;;;96.20;92.00;;;;;;;23.91;52.24;100265.09;5021333;28;20083;-73
2023/09/18 08:25:17;;;;;;;101.45;97.05;;;;;;;23.90;52.00;100269.03;5019727;28;20105;-73
2023/09/18 08:27:43;;;;;;;98.15;93.88;;;;;;;23.91;51.91;100276.97;4999515;28;20077;-71
2023/09/18 08:30:10;;;;;;;94.43;90.28;;;;;;;23.92;51.93;100284.09;5009606;28;20091;-76
2023/09/18 08:32:40;;;;;;;93.00;88.90;;;;;;;23.94;52.10;100278.25;5024624;28;20037;-71
2023/09/18 08:35:06;;;;;;;98.35;94.05;;;;;;;23.94;52.20;100275.47;5031015;28;20104;-70
2023/09/18 08:37:31;;;;;;;95.30;91.07;;;;;;;23.96;52.00;100281.44;4999393;28;20042;-76
2023/09/18 08:39:59;;;;;;;98.15;93.80;;;;;;;23.97;52.18;100267.31;5009689;28;20320;-74
2023/09/18 08:42:25;;;;;;;99.28;94.68;;;;;;;23.98;51.75;100266.16;5014257;28;20486;-70
2023/09/18 08:44:51;;;;;;;98.55;94.25;;;;;;;23.99;51.90;100272.50;5022885;28;20117;-71
2023/09/18 08:47:19;;;;;;;99.95;95.07;;;;;;;24.02;52.00;100276.50;4996649;28;20045;-74
2023/09/18 08:49:48;;;;;;;94.53;90.30;;;;;;;24.02;52.03;100277.31;5008872;28;20025;-72
2023/09/18 08:52:15;;;;;;;94.43;90.32;;;;;;;24.04;52.07;100288.81;5027019;28;20034;-75
2023/09/18 08:54:40;;;;;;;94.32;90.10;;;;;;;24.06;51.88;100288.44;5004882;28;20028;-72
2023/09/18 08:57:07;;;;;;;97.50;92.65;;;;;;;24.06;51.84;100280.19;5001862;28;20027;-71
2023/09/18 08:59:35;;;;;;;96.28;91.70;;;;;;;24.09;52.17;100287.75;4998984;28;20145;-69
2023/09/18 09:02:00;;;;;;;91.72;87.53;;;;;;;24.08;52.31;100286.97;5001992;28;20048;-71
2023/09/18 09:04:26;;;;;;;97.10;92.38;;;;;;;24.10;52.02;100290.19;5003797;28;20034;-71
2023/09/18 09:06:52;;;;;;;94.03;89.85;;;;;;;24.13;52.02;100302.47;5002983;28;20129;-71
2023/09/18 09:09:19;;;;;;;94.13;89.97;;;;;;;24.14;52.06;100293.03;5006767;28;20195;-72
2023/09/18 09:11:50;;;;;;;95.60;91.38;;;;;;;24.14;52.30;100298.56;5010825;28;20042;-72
2023/09/18 09:14:17;;;;;;;94.75;90.45;;;;;;;24.16;52.02;100310.88;5012749;28;20033;-75
2023/09/18 09:16:49;;;;;;;97.80;93.40;;;;;;;24.19;52.29;100323.16;5012231;28;20038;-71
2023/09/18 09:19:27;;;;;;;98.30;93.80;;;;;;;24.19;52.35;100314.88;5016134;28;20134;-73
2023/09/18 09:21:53;;;;;;;94.27;89.83;;;;;;;24.20;52.13;100313.75;5008227;28;20038;-72
2023/09/18 09:24:40;;;;;;;96.95;92.45;;;;;;;24.21;52.47;100318.13;5013401;28;20025;-78
2023/09/18 09:27:05;;;;;;;99.30;94.75;;;;;;;24.24;52.47;100325.72;5025020;28;20041;-78
2023/09/18 09:29:31;;;;;;;94.93;89.82;;;;;;;24.25;52.40;100326.53;5007784;28;20061;-77
2023/09/18 09:32:11;;;;;;;101.75;97.13;;;;;;;24.27;52.33;100324.22;5014164;28;20034;-76
2023/09/18 09:34:37;;;;;;;93.97;89.82;;;;;;;24.29;52.38;100327.41;5010595;28;20521;-76
2023/09/18 09:37:04;;;;;;;96.85;92.45;;;;;;;24.30;52.45;100323.53;5022322;28;20112;-78
2023/09/18 09:39:30;;;;;;;104.00;99.28;;;;;;;24.32;52.47;100318.47;5021123;28;20065;-81
2023/09/18 09:42:00;;;;;;;99.35;94.90;;;;;;;24.35;52.91;100326.06;5023744;28;20065;-80
2023/09/18 09:44:25;;;;;;;97.47;92.97;;;;;;;24.36;52.63;100324.91;5005116;28;20034;-77
2023/09/18 09:46:51;;;;;;;99.15;94.45;;;;;;;24.38;52.29;100320.63;5015735;28;20044;-73
2023/09/18 09:49:19;;;;;;;98.88;94.40;;;;;;;24.41;52.51;100335.69;5007384;28;20394;-76
2023/09/18 09:51:45;;;;;;;100.65;96.03;;;;;;;24.42;52.88;100331.81;5009525;28;20470;-75
2023/09/18 09:54:12;;;;;;;106.95;101.97;;;;;;;24.45;52.83;100330.31;5002410;28;20076;-88
2023/09/18 09:56:50;;;;;;;99.95;95.00;;;;;;;24.47;52.72;100336.28;5020119;28;20088;-89
2023/09/18 09:59:18;;;;;;;97.97;93.28;;;;;;;24.49;52.56;100334.00;4995902;28;20107;-87
2023/09/18 10:01:48;;;;;;;99.43;94.72;;;;;;;24.50;52.64;100335.63;5005344;28;20042;-85
2023/09/18 10:04:19;;;;;;;98.47;94.07;;;;;;;24.51;52.48;100334.47;5008780;28;20138;-89
2023/09/18 10:06:50;;;;;;;101.28;96.28;;;;;;;24.52;52.63;100336.88;4994399;28;20034;-87
2023/09/18 10:09:19;;;;;;;100.50;95.95;;;;;;;24.53;52.27;100338.50;5013285;28;20605;-86
2023/09/18 10:11:48;;;;;;;96.95;92.68;;;;;;;24.54;52.58;100333.75;5000940;28;20026;-87
2023/09/18 10:14:29;;;;;;;103.72;98.82;;;;;;;24.54;52.53;100331.81;5001259;28;20041;-86
2023/09/18 10:16:56;;;;;;;100.95;96.20;;;;;;;24.54;52.60;100337.31;4993498;28;20117;-84
2023/09/18 10:19:44;;;;;;;102.70;98.05;;;;;;;24.53;52.94;100344.00;5008692;28;20034;-84
2023/09/18 10:22:32;;;;;;;99.07;94.47;;;;;;;24.54;52.74;100342.03;5010633;28;20048;-92
2023/09/18 10:25:09;;;;;;;98.97;94.03;;;;;;;24.55;52.67;100347.22;5008676;28;20470;-84
2023/09/18 10:27:38;;;;;;;94.32;89.63;;;;;;;24.57;52.59;100346.91;4997412;28;20046;-86
2023/09/18 10:30:10;;;;;;;100.00;95.47;;;;;;;24.57;52.58;100347.69;5012873;28;20060;-85
2023/09/18 10:32:36;;;;;;;95.13;90.72;;;;;;;24.58;52.87;100357.56;5013519;28;20042;-83
2023/09/18 10:35:03;;;;;;;99.43;94.82;;;;;;;24.60;52.66;100343.44;5006933;28;20034;-84
2023/09/18 10:37:30;;;;;;;104.95;100.00;;;;;;;24.62;52.99;100349.41;5022704;28;20029;-76
2023/09/18 10:39:58;;;;;;;103.38;98.68;;;;;;;24.63;52.75;100350.22;5024681;28;20041;-81
2023/09/18 10:42:24;;;;;;;101.88;97.00;;;;;;;24.64;52.61;100347.09;5012681;28;20030;-88
2023/09/18 10:44:50;;;;;;;104.25;99.55;;;;;;;24.65;52.58;100345.16;4999951;28;20453;-83
2023/09/18 10:47:18;;;;;;;101.28;96.55;;;;;;;24.66;52.41;100347.56;5008881;28;20467;-82
2023/09/18 10:49:43;;;;;;;99.80;95.30;;;;;;;24.67;52.74;100351.94;5026670;28;20040;-83
2023/09/18 10:52:13;;;;;;;105.05;100.28;;;;;;;24.68;52.49;100348.03;5019279;28;20038;-86
2023/09/18 10:54:40;;;;;;;105.35;100.53;;;;;;;24.68;52.61;100349.97;5005883;28;20126;-84
2023/09/18 10:57:05;;;;;;;102.78;97.88;;;;;;;24.68;52.68;100348.03;5004960;28;20042;-84
2023/09/18 10:59:31;;;;;;;103.07;98.40;;;;;;;24.68;52.52;100344.47;5001957;28;20086;-86
2023/09/18 11:02:05;;;;;;;103.53;98.93;;;;;;;24.69;52.46;100343.28;4995526;28;20394;-87
2023/09/18 11:04:32;;;;;;;105.43;100.30;;;;;;;24.69;52.39;100343.28;4982026;28;20475;-88